createdAt,value
2017-08-15T00:01:25.511Z,6.30
2017-08-15T00:03:53.325Z,6.47
2017-08-15T00:06:21.181Z,7.03
2017-08-15T00:08:49.023Z,6.60
2017-08-15T00:11:16.857Z,6.90
2017-08-15T00:13:44.706Z,6.87
2017-08-15T00:16:12.564Z,6.90
2017-08-15T00:18:40.370Z,6.70
2017-08-15T00:21:08.220Z,6.97
2017-08-15T00:23:36.067Z,6.63
2017-08-15T00:26:03.938Z,7.20
2017-08-15T00:28:31.735Z,6.93
2017-08-15T00:30:59.567Z,6.47
2017-08-15T00:33:27.434Z,6.63
2017-08-15T00:35:55.262Z,7.20
2017-08-15T00:38:23.127Z,7.00
2017-08-15T00:40:51.002Z,6.80
2017-08-15T00:43:18.915Z,7.60
2017-08-15T00:45:46.742Z,7.80
2017-08-15T00:48:14.637Z,7.50
2017-08-15T00:50:42.396Z,6.83
2017-08-15T00:53:10.267Z,7.00
2017-08-15T00:55:38.113Z,7.90
2017-08-15T00:58:05.984Z,7.00
2017-08-15T01:00:33.799Z,7.13
2017-08-15T01:03:01.644Z,7.10
2017-08-15T01:05:29.524Z,6.63
2017-08-15T01:07:57.380Z,7.10
2017-08-15T01:10:25.271Z,6.73
2017-08-15T01:12:53.092Z,7.50
2017-08-15T01:15:20.944Z,6.50
2017-08-15T01:17:48.768Z,7.23
2017-08-15T01:20:16.677Z,7.50
2017-08-15T01:22:44.515Z,6.80
2017-08-15T01:25:12.377Z,6.20
2017-08-15T01:27:40.241Z,7.00
2017-08-15T01:30:08.124Z,7.20
2017-08-15T01:32:35.944Z,6.57
2017-08-15T01:35:03.835Z,6.80
2017-08-15T01:37:49.308Z,6.90
2017-08-15T01:40:17.168Z,7.10
2017-08-15T01:42:44.977Z,6.77
2017-08-15T01:45:12.804Z,7.40
2017-08-15T01:47:40.660Z,7.40
2017-08-15T01:50:08.499Z,6.60
2017-08-15T01:52:36.404Z,6.20
2017-08-15T01:55:04.245Z,7.10
2017-08-15T01:57:32.116Z,6.97
2017-08-15T01:59:59.932Z,6.77
2017-08-15T02:02:27.804Z,6.30
2017-08-15T02:04:55.643Z,7.07
2017-08-15T02:07:23.533Z,6.90
2017-08-15T02:09:51.387Z,7.37
2017-08-15T02:12:19.255Z,7.53
2017-08-15T02:14:47.076Z,6.50
2017-08-15T02:17:14.895Z,6.73
2017-08-15T02:19:42.773Z,7.07
2017-08-15T02:22:10.584Z,7.50
2017-08-15T02:24:38.467Z,7.70
2017-08-15T02:27:06.296Z,8.00
2017-08-15T02:29:34.204Z,7.93
2017-08-15T02:32:02.009Z,7.40
2017-08-15T02:34:29.865Z,7.60
2017-08-15T02:36:57.701Z,7.97
2017-08-15T02:39:25.545Z,6.60
2017-08-15T02:41:53.371Z,8.03
2017-08-15T02:44:21.134Z,7.70
2017-08-15T02:46:48.942Z,7.53
2017-08-15T02:49:16.748Z,6.93
2017-08-15T02:51:44.620Z,7.57
2017-08-15T02:54:12.450Z,7.60
2017-08-15T02:56:40.316Z,7.87
2017-08-15T02:59:08.172Z,7.50
2017-08-15T03:01:36.036Z,7.80
2017-08-15T03:04:03.866Z,7.60
2017-08-15T03:06:31.723Z,8.27
2017-08-15T03:08:59.579Z,7.63
2017-08-15T03:11:27.469Z,7.30
2017-08-15T03:13:55.292Z,8.00
2017-08-15T03:16:23.179Z,8.37
2017-08-15T03:18:50.993Z,8.30
2017-08-15T03:21:18.796Z,8.27
2017-08-15T03:23:46.698Z,8.20
2017-08-15T03:26:14.536Z,8.57
2017-08-15T03:28:42.408Z,8.50
2017-08-15T03:31:10.245Z,8.80
2017-08-15T03:33:38.118Z,8.17
2017-08-15T03:36:05.937Z,9.07
2017-08-15T03:38:33.831Z,8.13
2017-08-15T03:41:01.636Z,8.47
2017-08-15T03:43:29.497Z,8.33
2017-08-15T03:45:57.336Z,8.67
2017-08-15T03:48:25.230Z,8.17
2017-08-15T03:50:53.080Z,8.13
2017-08-15T03:53:20.909Z,8.30
2017-08-15T03:55:48.786Z,8.67
2017-08-15T03:58:16.590Z,8.70
2017-08-15T04:00:44.471Z,8.80
2017-08-15T04:03:12.271Z,8.60
2017-08-15T04:05:40.137Z,8.37
2017-08-15T04:08:08.053Z,9.13
2017-08-15T04:10:35.954Z,8.57
2017-08-15T04:13:03.789Z,8.80
2017-08-15T04:15:31.641Z,8.83
2017-08-15T04:17:59.389Z,8.73
2017-08-15T04:20:27.283Z,8.47
2017-08-15T04:22:55.124Z,8.77
2017-08-15T04:25:23.218Z,8.90
2017-08-15T04:27:51.030Z,9.27
2017-08-15T04:30:18.837Z,9.30
2017-08-15T04:32:46.632Z,9.47
2017-08-15T04:35:14.473Z,8.90
2017-08-15T04:37:42.324Z,9.10
2017-08-15T04:40:10.140Z,9.30
2017-08-15T04:42:37.933Z,9.27
2017-08-15T04:45:05.683Z,9.10
2017-08-15T04:47:33.465Z,9.23
2017-08-15T04:50:01.210Z,8.60
2017-08-15T04:52:29.001Z,8.80
2017-08-15T04:54:56.707Z,8.90
2017-08-15T04:57:24.470Z,9.00
2017-08-15T04:59:52.210Z,9.50
2017-08-15T05:02:19.953Z,9.83
2017-08-15T05:04:47.714Z,9.37
2017-08-15T05:07:15.498Z,9.17
2017-08-15T05:09:43.243Z,9.17
2017-08-15T05:12:11.074Z,9.07
2017-08-15T05:14:38.863Z,10.23
2017-08-15T05:17:06.596Z,9.20
2017-08-15T05:19:34.388Z,9.57
2017-08-15T05:22:02.132Z,8.57
2017-08-15T05:24:29.936Z,9.37
2017-08-15T05:26:57.664Z,8.70
2017-08-15T05:29:25.377Z,9.13
2017-08-15T05:31:53.174Z,9.00
2017-08-15T05:34:20.871Z,8.70
2017-08-15T05:36:48.642Z,8.90
2017-08-15T05:39:16.381Z,9.20
2017-08-15T05:41:44.186Z,9.60
2017-08-15T05:44:12.053Z,9.83
2017-08-15T05:46:39.845Z,9.60
2017-08-15T05:49:07.665Z,9.13
2017-08-15T05:51:35.425Z,10.03
2017-08-15T05:54:03.153Z,9.00
2017-08-15T05:56:30.858Z,9.90
2017-08-15T05:58:58.666Z,9.43
2017-08-15T06:01:26.433Z,9.97
2017-08-15T06:03:54.239Z,9.13
2017-08-15T06:06:22.044Z,8.60
2017-08-15T06:08:49.813Z,8.93
2017-08-15T06:11:17.577Z,9.23
2017-08-15T06:13:45.644Z,9.30
2017-08-15T06:16:13.432Z,9.20
2017-08-15T06:18:41.224Z,9.00
2017-08-15T06:21:08.949Z,9.20
2017-08-15T06:23:36.700Z,8.70
2017-08-15T06:26:04.432Z,8.97
2017-08-15T06:28:32.225Z,8.87
2017-08-15T06:30:59.949Z,8.33
2017-08-15T06:33:27.681Z,8.63
2017-08-15T06:35:55.445Z,8.77
2017-08-15T06:38:23.209Z,9.13
2017-08-15T06:40:50.988Z,8.50
2017-08-15T06:43:18.731Z,9.23
2017-08-15T06:45:46.512Z,9.13
2017-08-15T06:48:14.238Z,9.43
2017-08-15T06:50:42.036Z,9.27
2017-08-15T06:53:09.780Z,9.20
2017-08-15T06:55:37.544Z,8.60
2017-08-15T06:58:05.321Z,8.57
2017-08-15T07:00:33.104Z,9.20
2017-08-15T07:03:00.843Z,8.80
2017-08-15T07:05:28.619Z,8.40
2017-08-15T07:07:57.454Z,9.00
2017-08-15T07:10:25.365Z,8.80
2017-08-15T07:12:53.196Z,8.87
2017-08-15T07:15:21.036Z,8.70
2017-08-15T07:17:48.930Z,8.33
2017-08-15T07:20:16.679Z,8.80
2017-08-15T07:22:44.591Z,8.03
2017-08-15T07:25:12.422Z,7.87
2017-08-15T07:27:40.193Z,8.37
2017-08-15T07:30:08.141Z,8.87
2017-08-15T07:32:36.036Z,8.27
2017-08-15T07:35:03.928Z,8.10
2017-08-15T07:37:31.813Z,8.27
2017-08-15T07:39:59.658Z,7.73
2017-08-15T07:42:27.549Z,8.33
2017-08-15T07:44:55.386Z,7.90
2017-08-15T07:47:23.531Z,7.30
2017-08-15T07:49:51.377Z,7.20
2017-08-15T07:52:19.309Z,8.30
2017-08-15T07:54:47.140Z,8.40
2017-08-15T07:57:14.994Z,7.23
2017-08-15T07:59:42.874Z,8.03
2017-08-15T08:02:10.729Z,7.23
2017-08-15T08:04:38.593Z,7.63
2017-08-15T08:07:06.457Z,7.40
2017-08-15T08:09:34.376Z,7.20
2017-08-15T08:12:02.280Z,7.70
2017-08-15T08:14:30.166Z,7.50
2017-08-15T08:16:57.990Z,6.83
2017-08-15T08:19:25.868Z,7.03
2017-08-15T08:21:53.729Z,7.67
2017-08-15T08:24:21.598Z,7.03
2017-08-15T08:26:49.424Z,6.77
2017-08-15T08:29:17.325Z,7.20
2017-08-15T08:31:45.175Z,6.80
2017-08-15T08:34:13.177Z,7.10
2017-08-15T08:36:41.063Z,6.37
2017-08-15T08:39:08.896Z,6.60
2017-08-15T08:41:36.772Z,6.73
2017-08-15T08:44:04.611Z,6.63
2017-08-15T08:46:32.479Z,6.10
2017-08-15T08:48:59.628Z,6.60
2017-08-15T08:51:27.493Z,5.90
2017-08-15T08:53:55.303Z,6.00
2017-08-15T08:56:23.191Z,6.00
2017-08-15T08:58:50.919Z,5.57
2017-08-15T09:01:18.727Z,6.17
2017-08-15T09:04:36.042Z,6.17
2017-08-15T09:07:03.796Z,6.20
2017-08-15T09:09:31.574Z,6.30
2017-08-15T09:11:59.324Z,6.40
2017-08-15T09:14:27.101Z,5.70
2017-08-15T09:16:55.036Z,5.93
2017-08-15T09:19:22.909Z,6.00
2017-08-15T09:21:50.855Z,5.93
2017-08-15T09:24:18.625Z,5.63
2017-08-15T09:26:46.412Z,5.50
2017-08-15T09:29:14.207Z,5.23
2017-08-15T09:31:41.990Z,4.70
2017-08-15T09:34:10.875Z,5.80
2017-08-15T09:36:38.626Z,5.53
2017-08-15T09:39:06.907Z,5.43
2017-08-15T09:41:35.471Z,5.30
2017-08-15T09:44:03.397Z,5.57
2017-08-15T09:46:31.146Z,5.37
2017-08-15T09:48:58.917Z,4.93
2017-08-15T09:51:26.626Z,5.10
2017-08-15T09:53:54.397Z,5.47
2017-08-15T09:56:22.116Z,5.80
2017-08-15T09:58:55.355Z,5.27
2017-08-15T10:01:23.110Z,5.27
2017-08-15T10:03:50.848Z,4.97
2017-08-15T10:06:18.614Z,5.03
2017-08-15T10:08:46.368Z,5.00
2017-08-15T10:11:14.181Z,5.30
2017-08-15T10:13:42.040Z,6.23
2017-08-15T10:16:09.905Z,4.67
2017-08-15T10:18:37.754Z,4.90
2017-08-15T10:21:05.713Z,4.77
2017-08-15T10:23:33.557Z,4.90
2017-08-15T10:26:01.345Z,4.80
2017-08-15T10:28:29.178Z,4.33
2017-08-15T10:30:57.038Z,4.50
2017-08-15T10:33:24.780Z,4.37
2017-08-15T10:35:52.736Z,4.10
2017-08-15T10:38:20.588Z,5.57
2017-08-15T10:40:48.478Z,3.93
2017-08-15T10:43:16.366Z,3.90
2017-08-15T10:45:44.259Z,5.20
2017-08-15T10:48:12.094Z,4.30
2017-08-15T10:50:39.874Z,5.67
2017-08-15T10:53:07.708Z,4.10
2017-08-15T10:55:35.556Z,4.53
2017-08-15T10:58:03.464Z,4.33
2017-08-15T11:00:31.355Z,4.50
2017-08-15T11:02:59.267Z,4.47
2017-08-15T11:05:27.124Z,4.33
2017-08-15T11:07:54.972Z,4.30
2017-08-15T11:10:22.855Z,4.20
2017-08-15T11:12:50.737Z,4.20
2017-08-15T11:15:18.553Z,4.30
2017-08-15T11:17:46.477Z,4.00
2017-08-15T11:20:14.342Z,4.27
2017-08-15T11:22:42.186Z,4.60
2017-08-15T11:25:10.032Z,4.20
2017-08-15T11:27:37.892Z,4.30
2017-08-15T11:30:05.685Z,4.43
2017-08-15T11:32:33.506Z,4.20
2017-08-15T11:35:01.373Z,4.17
2017-08-15T11:37:29.206Z,4.30
2017-08-15T11:39:57.079Z,4.20
2017-08-15T11:42:24.907Z,3.97
2017-08-15T11:44:52.781Z,4.50
2017-08-15T11:47:20.652Z,4.57
2017-08-15T11:49:48.552Z,4.60
2017-08-15T11:52:16.378Z,4.60
2017-08-15T11:54:44.294Z,5.00
2017-08-15T11:57:12.115Z,5.10
2017-08-15T11:59:39.991Z,5.13
2017-08-15T12:02:07.832Z,4.70
2017-08-15T12:04:35.706Z,5.57
2017-08-15T12:07:03.632Z,4.83
2017-08-15T12:09:31.484Z,5.23
2017-08-15T12:11:59.352Z,5.03
2017-08-15T12:14:27.207Z,5.20
2017-08-15T12:16:55.061Z,5.30
2017-08-15T12:19:22.914Z,5.50
2017-08-15T12:21:50.826Z,5.07
2017-08-15T12:24:18.668Z,5.27
2017-08-15T12:26:46.576Z,5.20
2017-08-15T12:29:14.433Z,5.37
2017-08-15T12:31:42.309Z,5.00
2017-08-15T12:34:10.057Z,4.90
2017-08-15T12:36:37.856Z,5.10
2017-08-15T12:39:05.595Z,4.23
2017-08-15T12:41:33.309Z,4.60
2017-08-15T12:44:01.096Z,4.23
2017-08-15T12:46:28.837Z,4.87
2017-08-15T12:48:56.654Z,4.93
2017-08-15T12:51:24.375Z,4.83
2017-08-15T12:53:52.257Z,5.20
2017-08-15T12:56:20.089Z,4.73
2017-08-15T12:58:47.886Z,5.30
2017-08-15T13:01:15.744Z,5.50
2017-08-15T13:03:43.656Z,4.30
2017-08-15T13:06:11.488Z,4.57
2017-08-15T13:08:39.421Z,4.53
2017-08-15T13:11:07.286Z,4.60
2017-08-15T13:13:35.151Z,4.40
2017-08-15T13:16:02.981Z,4.70
2017-08-15T13:18:30.894Z,4.30
2017-08-15T13:20:58.774Z,4.60
2017-08-15T13:23:26.654Z,4.87
2017-08-15T13:25:54.589Z,4.30
2017-08-15T13:28:22.480Z,4.30
2017-08-15T13:30:50.369Z,4.40
2017-08-15T13:33:18.272Z,4.60
2017-08-15T13:35:46.228Z,4.93
2017-08-15T13:38:14.066Z,4.83
2017-08-15T13:40:41.971Z,4.87
2017-08-15T13:43:09.791Z,5.43
2017-08-15T13:45:37.673Z,5.33
2017-08-15T13:48:05.531Z,5.83
2017-08-15T13:50:33.348Z,5.53
2017-08-15T13:53:01.227Z,5.13
2017-08-15T13:55:29.106Z,5.33
2017-08-15T13:57:56.948Z,5.60
2017-08-15T14:00:24.865Z,5.40
2017-08-15T14:02:52.780Z,5.40
2017-08-15T14:05:20.708Z,5.67
2017-08-15T14:07:48.662Z,5.30
2017-08-15T14:10:17.018Z,5.20
2017-08-15T14:12:44.929Z,5.40
2017-08-15T14:15:12.864Z,5.00
2017-08-15T14:17:40.751Z,5.90
2017-08-15T14:20:08.580Z,5.00
2017-08-15T14:22:36.497Z,5.80
2017-08-15T14:25:04.330Z,5.70
2017-08-15T14:27:32.248Z,6.00
2017-08-15T14:30:00.144Z,6.63
2017-08-15T14:32:28.009Z,6.30
2017-08-15T14:34:55.788Z,6.17
2017-08-15T14:37:23.648Z,6.00
2017-08-15T14:39:51.513Z,5.67
2017-08-15T14:42:19.274Z,5.70
2017-08-15T14:44:47.125Z,6.20
2017-08-15T14:47:14.956Z,5.47
2017-08-15T14:49:42.775Z,5.73
2017-08-15T14:52:10.549Z,5.10
2017-08-15T14:54:38.367Z,5.50
2017-08-15T14:57:06.177Z,5.40
2017-08-15T14:59:34.007Z,5.80
2017-08-15T15:02:01.804Z,5.90
2017-08-15T15:04:29.629Z,5.63
2017-08-15T15:06:57.492Z,5.80
2017-08-15T15:09:25.462Z,5.83
2017-08-15T15:11:53.354Z,6.43
2017-08-15T15:14:21.197Z,6.10
2017-08-15T15:16:49.156Z,6.53
2017-08-15T15:19:17.083Z,7.10
2017-08-15T15:21:44.996Z,6.33
2017-08-15T15:24:12.882Z,5.77
2017-08-15T15:26:40.837Z,6.60
2017-08-15T15:29:08.728Z,5.80
2017-08-15T15:31:36.655Z,5.80
2017-08-15T15:34:04.554Z,5.50
2017-08-15T15:36:32.525Z,6.00
2017-08-15T15:39:00.367Z,5.40
2017-08-15T15:41:28.307Z,5.40
2017-08-15T15:43:56.131Z,5.77
2017-08-15T15:46:23.971Z,5.80
2017-08-15T15:48:51.904Z,5.70
2017-08-15T15:51:19.837Z,5.70
2017-08-15T15:53:47.745Z,6.10
2017-08-15T15:56:15.594Z,5.60
2017-08-15T15:58:43.502Z,5.30
2017-08-15T16:01:11.325Z,5.77
2017-08-15T16:03:39.184Z,5.67
2017-08-15T16:06:07.034Z,6.00
2017-08-15T16:08:35.485Z,6.10
2017-08-15T16:11:03.350Z,5.70
2017-08-15T16:13:31.162Z,6.63
2017-08-15T16:15:58.974Z,5.90
2017-08-15T16:18:26.858Z,5.80
2017-08-15T16:20:54.669Z,5.80
2017-08-15T16:23:22.526Z,5.60
2017-08-15T16:25:50.352Z,5.80
2017-08-15T16:28:18.193Z,5.40
2017-08-15T16:30:45.965Z,5.43
2017-08-15T16:33:13.702Z,5.40
2017-08-15T16:35:41.483Z,5.20
2017-08-15T16:38:09.256Z,5.20
2017-08-15T16:40:37.083Z,5.40
2017-08-15T16:43:04.861Z,5.30
2017-08-15T16:45:32.668Z,5.60
2017-08-15T16:48:00.441Z,5.73
2017-08-15T16:50:28.326Z,5.37
2017-08-15T16:52:56.075Z,5.87
2017-08-15T16:55:23.955Z,5.47
2017-08-15T16:57:51.697Z,5.53
2017-08-15T17:00:19.474Z,5.87
2017-08-15T17:02:47.264Z,5.90
2017-08-15T17:05:15.110Z,5.47
2017-08-15T17:07:42.855Z,5.10
2017-08-15T17:10:10.608Z,6.00
2017-08-15T17:12:38.410Z,6.43
2017-08-15T17:15:06.127Z,5.60
2017-08-15T17:17:33.896Z,6.13
2017-08-15T17:20:01.604Z,5.33
2017-08-15T17:22:29.397Z,6.53
2017-08-15T17:24:57.186Z,5.67
2017-08-15T17:27:24.972Z,5.73
2017-08-15T17:29:52.718Z,5.93
2017-08-15T17:32:20.504Z,5.70
2017-08-15T17:34:48.238Z,6.13
2017-08-15T17:37:16.049Z,6.13
2017-08-15T17:39:43.832Z,6.40
2017-08-15T17:42:11.626Z,5.60
2017-08-15T17:44:39.422Z,6.03
2017-08-15T17:47:07.136Z,6.10
2017-08-15T17:49:34.903Z,6.20
2017-08-15T17:52:03.045Z,6.37
2017-08-15T17:54:30.851Z,5.80
2017-08-15T17:56:58.585Z,6.20
2017-08-15T17:59:26.387Z,7.10
2017-08-15T18:01:54.107Z,6.87
2017-08-15T18:04:21.893Z,7.20
2017-08-15T18:06:49.615Z,7.43
2017-08-15T18:09:17.452Z,7.70
2017-08-15T18:11:45.243Z,6.90
2017-08-15T18:14:12.987Z,6.97
2017-08-15T18:16:40.765Z,7.20
2017-08-15T18:19:08.501Z,6.77
2017-08-15T18:21:36.309Z,6.97
2017-08-15T18:24:04.047Z,7.10
2017-08-15T18:26:31.815Z,7.20
2017-08-15T18:28:59.551Z,6.60
2017-08-15T18:31:27.342Z,6.30
2017-08-15T18:33:55.078Z,6.50
2017-08-15T18:36:22.834Z,6.67
2017-08-15T18:38:50.578Z,6.53
2017-08-15T18:41:18.330Z,6.60
2017-08-15T18:43:46.070Z,6.60
2017-08-15T18:46:13.807Z,6.03
2017-08-15T18:48:41.717Z,6.67
2017-08-15T18:51:09.440Z,6.43
2017-08-15T18:53:37.411Z,6.00
2017-08-15T18:56:05.462Z,6.27
2017-08-15T18:58:33.293Z,6.23
2017-08-15T19:01:01.017Z,6.17
2017-08-15T19:03:28.806Z,5.83
2017-08-15T19:05:56.593Z,6.10
2017-08-15T19:08:24.412Z,6.00
2017-08-15T19:10:52.276Z,6.43
2017-08-15T19:13:20.196Z,6.20
2017-08-15T19:15:48.023Z,5.90
2017-08-15T19:18:15.792Z,5.70
2017-08-15T19:20:43.531Z,5.63
2017-08-15T19:23:11.295Z,6.00
2017-08-15T19:25:39.077Z,6.17
2017-08-15T19:28:06.818Z,6.03
2017-08-15T19:30:34.597Z,6.00
2017-08-15T19:33:02.362Z,4.70
2017-08-15T19:35:30.139Z,3.70
2017-08-15T19:37:58.227Z,2.60
2017-08-15T19:40:26.049Z,2.10
2017-08-15T19:42:53.899Z,2.97
2017-08-15T19:45:21.754Z,3.30
2017-08-15T19:47:49.539Z,3.37
2017-08-15T19:50:17.360Z,3.00
2017-08-15T19:52:45.227Z,3.47
2017-08-15T19:55:13.063Z,3.50
2017-08-15T19:57:40.953Z,3.30
2017-08-15T20:00:08.720Z,4.10
2017-08-15T20:02:36.617Z,3.80
2017-08-15T20:05:04.378Z,2.97
2017-08-15T20:07:32.559Z,2.47
2017-08-15T20:10:00.355Z,3.30
2017-08-15T20:12:28.248Z,3.00
2017-08-15T20:14:55.984Z,3.17
2017-08-15T20:17:23.698Z,4.30
2017-08-15T20:19:51.645Z,4.90
2017-08-15T20:22:19.467Z,5.37
2017-08-15T20:24:47.286Z,6.30
2017-08-15T20:27:15.034Z,6.80
2017-08-15T20:29:42.810Z,5.80
2017-08-15T20:32:10.646Z,5.33
2017-08-15T20:34:38.506Z,5.37
2017-08-15T20:37:06.350Z,5.00
2017-08-15T20:39:34.212Z,6.00
2017-08-15T20:42:01.927Z,5.40
2017-08-15T20:44:29.690Z,5.23
2017-08-15T20:46:57.496Z,6.40
2017-08-15T20:49:25.293Z,6.33
2017-08-15T20:51:53.118Z,6.13
2017-08-15T20:54:20.942Z,6.60
2017-08-15T20:56:48.869Z,6.57
2017-08-15T20:59:16.715Z,5.73
2017-08-15T21:01:44.575Z,5.80
2017-08-15T21:04:12.435Z,5.20
2017-08-15T21:06:40.361Z,5.23
2017-08-15T21:09:08.106Z,4.90
2017-08-15T21:11:35.989Z,5.97
2017-08-15T21:14:03.821Z,5.27
2017-08-15T21:16:31.677Z,5.27
2017-08-15T21:18:59.511Z,5.10
2017-08-15T21:21:27.405Z,5.80
2017-08-15T21:23:55.234Z,4.83
2017-08-15T21:26:23.086Z,5.30
2017-08-15T21:28:50.921Z,5.07
2017-08-15T21:31:18.789Z,5.33
2017-08-15T21:33:46.598Z,4.17
2017-08-15T21:36:14.471Z,4.40
2017-08-15T21:38:42.290Z,4.30
2017-08-15T21:41:10.117Z,4.70
2017-08-15T21:43:37.957Z,5.03
2017-08-15T21:46:05.810Z,6.50
2017-08-15T21:48:33.609Z,7.37
2017-08-15T21:51:01.491Z,6.07
2017-08-15T21:53:29.289Z,5.70
2017-08-15T21:55:57.176Z,6.37
2017-08-15T21:58:25.029Z,6.40
2017-08-15T22:00:58.422Z,4.57
2017-08-15T22:03:26.289Z,5.60
2017-08-15T22:05:54.125Z,5.13
2017-08-15T22:08:21.971Z,4.83
2017-08-15T22:10:49.850Z,4.93
2017-08-15T22:13:17.719Z,5.10
2017-08-15T22:15:45.546Z,4.93
2017-08-15T22:18:13.408Z,4.90
2017-08-15T22:20:41.136Z,5.57
2017-08-15T22:23:09.023Z,5.30
2017-08-15T22:25:36.844Z,5.60
2017-08-15T22:28:04.719Z,6.00
2017-08-15T22:30:32.543Z,6.03
2017-08-15T22:33:00.406Z,5.53
2017-08-15T22:35:28.250Z,6.40
2017-08-15T22:37:56.113Z,6.60
2017-08-15T22:40:23.950Z,6.27
2017-08-15T22:42:51.773Z,7.37
2017-08-15T22:45:19.643Z,8.00
2017-08-15T22:47:47.478Z,7.17
2017-08-15T22:50:15.349Z,7.40
2017-08-15T22:52:43.203Z,6.80
2017-08-15T22:55:11.105Z,8.37
2017-08-15T22:57:38.984Z,8.20
2017-08-15T23:00:06.866Z,8.20
2017-08-15T23:02:34.699Z,8.00
2017-08-15T23:05:02.548Z,7.63
2017-08-15T23:07:30.409Z,6.90
2017-08-15T23:09:58.345Z,7.10
2017-08-15T23:12:26.165Z,7.33
2017-08-15T23:14:54.043Z,6.67
2017-08-15T23:17:21.897Z,7.07
2017-08-15T23:19:49.766Z,6.37
2017-08-15T23:22:17.616Z,6.93
2017-08-15T23:24:45.436Z,7.13
2017-08-15T23:27:13.303Z,6.87
2017-08-15T23:29:41.141Z,6.30
2017-08-15T23:32:09.002Z,7.50
2017-08-15T23:34:36.829Z,6.97
2017-08-15T23:37:04.713Z,7.57
2017-08-15T23:39:32.572Z,7.87
2017-08-15T23:42:00.456Z,7.00
2017-08-15T23:44:28.262Z,8.10
2017-08-15T23:46:56.157Z,7.77
2017-08-15T23:49:23.994Z,7.13
2017-08-15T23:51:51.877Z,8.17
2017-08-15T23:54:19.685Z,7.93
2017-08-15T23:56:47.547Z,8.73
2017-08-15T23:59:15.365Z,9.67
